sensor_id;sensor_type;location;lat;lon;timestamp;pressure;altitude;pressure_sealevel;temperature;humidity
64853;BME280;56050;55.558;-4.644;2023-03-15T00:01:00;101394.31;;;1.75;67.93
64853;BME280;56050;55.558;-4.644;2023-03-15T00:03:26;101385.56;;;1.75;68.15
64853;BME280;56050;55.558;-4.644;2023-03-15T00:05:51;101392.28;;;1.72;68.20
64853;BME280;56050;55.558;-4.644;2023-03-15T00:08:17;101386.50;;;1.70;68.02
64853;BME280;56050;55.558;-4.644;2023-03-15T00:10:43;101388.53;;;1.73;68.13
64853;BME280;56050;55.558;-4.644;2023-03-15T00:13:10;101386.50;;;1.70;68.17
64853;BME280;56050;55.558;-4.644;2023-03-15T00:15:43;101380.56;;;1.65;68.22
64853;BME280;56050;55.558;-4.644;2023-03-15T00:18:09;101380.09;;;1.63;68.10
64853;BME280;56050;55.558;-4.644;2023-03-15T00:20:36;101373.22;;;1.62;68.46
64853;BME280;56050;55.558;-4.644;2023-03-15T00:23:02;101373.81;;;1.59;68.38
64853;BME280;56050;55.558;-4.644;2023-03-15T00:25:28;101382.41;;;1.56;68.44
64853;BME280;56050;55.558;-4.644;2023-03-15T00:27:53;101379.75;;;1.56;68.44
64853;BME280;56050;55.558;-4.644;2023-03-15T00:30:19;101371.59;;;1.52;68.40
64853;BME280;56050;55.558;-4.644;2023-03-15T00:32:44;101376.16;;;1.52;68.55
64853;BME280;56050;55.558;-4.644;2023-03-15T00:35:10;101379.91;;;1.51;68.63
64853;BME280;56050;55.558;-4.644;2023-03-15T00:37:37;101387.06;;;1.50;68.59
64853;BME280;56050;55.558;-4.644;2023-03-15T00:40:03;101388.47;;;1.48;68.62
64853;BME280;56050;55.558;-4.644;2023-03-15T00:42:31;101389.88;;;1.45;68.93
64853;BME280;56050;55.558;-4.644;2023-03-15T00:44:58;101381.44;;;1.43;68.58
64853;BME280;56050;55.558;-4.644;2023-03-15T00:47:23;101393.16;;;1.42;68.79
64853;BME280;56050;55.558;-4.644;2023-03-15T00:49:49;101390.03;;;1.40;68.75
64853;BME280;56050;55.558;-4.644;2023-03-15T00:52:15;101394.06;;;1.38;68.75
64853;BME280;56050;55.558;-4.644;2023-03-15T00:54:41;101382.97;;;1.36;68.85
64853;BME280;56050;55.558;-4.644;2023-03-15T00:57:07;101379.06;;;1.33;68.86
64853;BME280;56050;55.558;-4.644;2023-03-15T00:59:33;101380.47;;;1.31;68.96
64853;BME280;56050;55.558;-4.644;2023-03-15T01:02:02;101380.78;;;1.29;68.88
64853;BME280;56050;55.558;-4.644;2023-03-15T01:04:28;101374.22;;;1.27;68.71
64853;BME280;56050;55.558;-4.644;2023-03-15T01:06:54;101376.09;;;1.26;68.91
64853;BME280;56050;55.558;-4.644;2023-03-15T01:09:19;101380.13;;;1.24;68.78
64853;BME280;56050;55.558;-4.644;2023-03-15T01:11:45;101388.38;;;1.22;68.93
64853;BME280;56050;55.558;-4.644;2023-03-15T01:14:10;101383.88;;;1.23;69.03
64853;BME280;56050;55.558;-4.644;2023-03-15T01:16:36;101379.97;;;1.20;68.97
64853;BME280;56050;55.558;-4.644;2023-03-15T01:19:01;101387.44;;;1.18;68.98
64853;BME280;56050;55.558;-4.644;2023-03-15T01:21:27;101380.28;;;1.18;69.06
64853;BME280;56050;55.558;-4.644;2023-03-15T01:23:53;101379.78;;;1.16;68.97
64853;BME280;56050;55.558;-4.644;2023-03-15T01:26:19;101384.00;;;1.17;68.96
64853;BME280;56050;55.558;-4.644;2023-03-15T01:28:44;101380.56;;;1.17;69.04
64853;BME280;56050;55.558;-4.644;2023-03-15T01:31:17;101378.22;;;1.15;68.90
64853;BME280;56050;55.558;-4.644;2023-03-15T01:33:43;101377.44;;;1.15;69.03
64853;BME280;56050;55.558;-4.644;2023-03-15T01:36:10;101382.75;;;1.15;69.05
64853;BME280;56050;55.558;-4.644;2023-03-15T01:38:35;101372.13;;;1.15;69.27
64853;BME280;56050;55.558;-4.644;2023-03-15T01:41:01;101378.22;;;1.15;69.00
64853;BME280;56050;55.558;-4.644;2023-03-15T01:43:29;101384.63;;;1.14;69.04
64853;BME280;56050;55.558;-4.644;2023-03-15T01:46:17;101380.38;;;1.13;69.09
64853;BME280;56050;55.558;-4.644;2023-03-15T01:56:39;101379.78;;;1.16;68.96
64853;BME280;56050;55.558;-4.644;2023-03-15T01:59:10;101382.44;;;1.16;69.33
64853;BME280;56050;55.558;-4.644;2023-03-15T02:01:39;101388.53;;;1.17;69.22
64853;BME280;56050;55.558;-4.644;2023-03-15T02:04:11;101386.66;;;1.17;69.33
64853;BME280;56050;55.558;-4.644;2023-03-15T02:06:40;101383.69;;;1.19;69.31
64853;BME280;56050;55.558;-4.644;2023-03-15T02:09:13;101384.47;;;1.19;69.35
64853;BME280;56050;55.558;-4.644;2023-03-15T02:11:40;101387.31;;;1.23;69.27
64853;BME280;56050;55.558;-4.644;2023-03-15T02:14:09;101374.03;;;1.23;69.25
64853;BME280;56050;55.558;-4.644;2023-03-15T02:16:36;101365.75;;;1.25;69.08
64853;BME280;56050;55.558;-4.644;2023-03-15T02:19:03;101363.88;;;1.25;69.07
64853;BME280;56050;55.558;-4.644;2023-03-15T02:21:54;101361.25;;;1.25;69.28
64853;BME280;56050;55.558;-4.644;2023-03-15T02:24:24;101355.63;;;1.27;69.16
64853;BME280;56050;55.558;-4.644;2023-03-15T02:26:54;101346.09;;;1.26;69.10
64853;BME280;56050;55.558;-4.644;2023-03-15T02:29:23;101352.66;;;1.28;69.12
64853;BME280;56050;55.558;-4.644;2023-03-15T02:31:50;101349.22;;;1.28;69.14
64853;BME280;56050;55.558;-4.644;2023-03-15T02:34:15;101357.69;;;1.30;68.98
64853;BME280;56050;55.558;-4.644;2023-03-15T02:36:41;101348.94;;;1.29;69.06
64853;BME280;56050;55.558;-4.644;2023-03-15T02:39:17;101344.69;;;1.28;69.04
64853;BME280;56050;55.558;-4.644;2023-03-15T02:41:55;101342.50;;;1.30;69.09
64853;BME280;56050;55.558;-4.644;2023-03-15T02:44:36;101344.41;;;1.30;69.12
64853;BME280;56050;55.558;-4.644;2023-03-15T02:47:06;101353.63;;;1.32;68.97
64853;BME280;56050;55.558;-4.644;2023-03-15T02:49:36;101350.66;;;1.34;68.94
64853;BME280;56050;55.558;-4.644;2023-03-15T02:52:04;101350.34;;;1.35;69.03
64853;BME280;56050;55.558;-4.644;2023-03-15T02:54:29;101356.44;;;1.36;68.90
64853;BME280;56050;55.558;-4.644;2023-03-15T02:56:59;101352.22;;;1.35;69.04
64853;BME280;56050;55.558;-4.644;2023-03-15T02:59:24;101361.25;;;1.34;68.95
64853;BME280;56050;55.558;-4.644;2023-03-15T03:01:50;101358.44;;;1.30;69.05
64853;BME280;56050;55.558;-4.644;2023-03-15T03:04:15;101351.09;;;1.27;68.85
64853;BME280;56050;55.558;-4.644;2023-03-15T03:06:41;101354.38;;;1.24;69.01
64853;BME280;56050;55.558;-4.644;2023-03-15T03:09:08;101351.09;;;1.18;69.19
64853;BME280;56050;55.558;-4.644;2023-03-15T03:11:34;101350.91;;;1.15;68.89
64853;BME280;56050;55.558;-4.644;2023-03-15T03:13:59;101346.22;;;1.12;68.97
64853;BME280;56050;55.558;-4.644;2023-03-15T03:16:24;101339.94;;;1.08;69.08
64853;BME280;56050;55.558;-4.644;2023-03-15T03:18:50;101341.66;;;1.04;69.14
64853;BME280;56050;55.558;-4.644;2023-03-15T03:21:15;101338.84;;;1.00;69.15
64853;BME280;56050;55.558;-4.644;2023-03-15T03:23:41;101343.50;;;0.95;69.16
64853;BME280;56050;55.558;-4.644;2023-03-15T03:26:16;101336.47;;;0.90;69.26
64853;BME280;56050;55.558;-4.644;2023-03-15T03:28:43;101330.97;;;0.87;69.21
64853;BME280;56050;55.558;-4.644;2023-03-15T03:31:20;101323.63;;;0.84;69.24
64853;BME280;56050;55.558;-4.644;2023-03-15T03:33:46;101327.69;;;0.81;69.21
64853;BME280;56050;55.558;-4.644;2023-03-15T03:36:11;101331.72;;;0.79;69.33
64853;BME280;56050;55.558;-4.644;2023-03-15T03:38:41;101326.25;;;0.75;69.27
64853;BME280;56050;55.558;-4.644;2023-03-15T03:41:08;101330.00;;;0.74;69.27
64853;BME280;56050;55.558;-4.644;2023-03-15T03:43:34;101329.81;;;0.71;69.48
64853;BME280;56050;55.558;-4.644;2023-03-15T03:45:59;101333.88;;;0.68;69.33
64853;BME280;56050;55.558;-4.644;2023-03-15T03:48:25;101328.09;;;0.66;69.25
64853;BME280;56050;55.558;-4.644;2023-03-15T03:50:50;101327.91;;;0.63;69.47
64853;BME280;56050;55.558;-4.644;2023-03-15T03:53:16;101327.13;;;0.62;69.35
64853;BME280;56050;55.558;-4.644;2023-03-15T03:55:42;101321.63;;;0.58;69.33
64853;BME280;56050;55.558;-4.644;2023-03-15T03:58:07;101324.59;;;0.57;69.49
64853;BME280;56050;55.558;-4.644;2023-03-15T04:00:34;101322.56;;;0.54;69.50
64853;BME280;56050;55.558;-4.644;2023-03-15T04:02:59;101336.13;;;0.52;69.48
64853;BME280;56050;55.558;-4.644;2023-03-15T04:05:26;101338.28;;;0.50;69.65
64853;BME280;56050;55.558;-4.644;2023-03-15T04:07:52;101335.63;;;0.50;69.52
64853;BME280;56050;55.558;-4.644;2023-03-15T04:10:17;101330.31;;;0.50;69.64
64853;BME280;56050;55.558;-4.644;2023-03-15T04:12:43;101328.47;;;0.51;69.54
64853;BME280;56050;55.558;-4.644;2023-03-15T04:15:10;101329.25;;;0.51;69.63
64853;BME280;56050;55.558;-4.644;2023-03-15T04:17:36;101321.31;;;0.51;69.51
64853;BME280;56050;55.558;-4.644;2023-03-15T04:20:02;101316.00;;;0.51;69.55
64853;BME280;56050;55.558;-4.644;2023-03-15T04:22:31;101316.00;;;0.51;69.61
64853;BME280;56050;55.558;-4.644;2023-03-15T04:24:59;101311.50;;;0.52;69.47
64853;BME280;56050;55.558;-4.644;2023-03-15T04:27:26;101309.31;;;0.54;69.61
64853;BME280;56050;55.558;-4.644;2023-03-15T04:29:52;101308.69;;;0.57;69.63
64853;BME280;56050;55.558;-4.644;2023-03-15T04:32:17;101306.06;;;0.57;69.43
64853;BME280;56050;55.558;-4.644;2023-03-15T04:34:43;101308.38;;;0.58;69.47
64853;BME280;56050;55.558;-4.644;2023-03-15T04:37:08;101308.38;;;0.58;69.62
64853;BME280;56050;55.558;-4.644;2023-03-15T04:39:34;101306.53;;;0.59;69.32
64853;BME280;56050;55.558;-4.644;2023-03-15T04:42:00;101317.13;;;0.59;69.42
64853;BME280;56050;55.558;-4.644;2023-03-15T04:44:25;101311.53;;;0.61;69.39
64853;BME280;56050;55.558;-4.644;2023-03-15T04:46:53;101303.59;;;0.61;69.50
64853;BME280;56050;55.558;-4.644;2023-03-15T04:49:18;101299.03;;;0.61;69.53
64853;BME280;56050;55.558;-4.644;2023-03-15T04:51:44;101305.13;;;0.62;69.46
64853;BME280;56050;55.558;-4.644;2023-03-15T04:54:10;101299.81;;;0.62;69.53
64853;BME280;56050;55.558;-4.644;2023-03-15T04:56:35;101298.75;;;0.63;69.50
64853;BME280;56050;55.558;-4.644;2023-03-15T04:59:02;101299.53;;;0.63;69.46
64853;BME280;56050;55.558;-4.644;2023-03-15T05:01:29;101305.59;;;0.64;69.36
64853;BME280;56050;55.558;-4.644;2023-03-15T05:03:56;101304.53;;;0.65;69.50
64853;BME280;56050;55.558;-4.644;2023-03-15T05:06:21;101300.00;;;0.65;69.38
64853;BME280;56050;55.558;-4.644;2023-03-15T05:08:47;101306.09;;;0.66;69.40
64853;BME280;56050;55.558;-4.644;2023-03-15T05:11:12;101303.13;;;0.67;69.37
64853;BME280;56050;55.558;-4.644;2023-03-15T05:13:38;101305.78;;;0.67;69.47
64853;BME280;56050;55.558;-4.644;2023-03-15T05:16:04;101313.72;;;0.67;69.18
64853;BME280;56050;55.558;-4.644;2023-03-15T05:18:29;101315.31;;;0.68;69.35
64853;BME280;56050;55.558;-4.644;2023-03-15T05:20:54;101308.44;;;0.67;69.26
64853;BME280;56050;55.558;-4.644;2023-03-15T05:23:21;101305.78;;;0.67;69.13
64853;BME280;56050;55.558;-4.644;2023-03-15T05:25:54;101307.66;;;0.67;69.25
64853;BME280;56050;55.558;-4.644;2023-03-15T05:28:23;101314.19;;;0.69;69.19
64853;BME280;56050;55.558;-4.644;2023-03-15T05:30:50;101321.69;;;0.67;69.13
64853;BME280;56050;55.558;-4.644;2023-03-15T05:33:19;101323.53;;;0.67;69.23
64853;BME280;56050;55.558;-4.644;2023-03-15T05:35:44;101319.81;;;0.68;69.33
64853;BME280;56050;55.558;-4.644;2023-03-15T05:38:11;101325.44;;;0.66;69.22
64853;BME280;56050;55.558;-4.644;2023-03-15T05:40:42;101319.03;;;0.67;69.17
64853;BME280;56050;55.558;-4.644;2023-03-15T05:43:07;101316.69;;;0.66;69.19
64853;BME280;56050;55.558;-4.644;2023-03-15T05:45:33;101309.81;;;0.65;69.47
64853;BME280;56050;55.558;-4.644;2023-03-15T05:47:58;101307.97;;;0.65;69.40
64853;BME280;56050;55.558;-4.644;2023-03-15T05:50:23;101314.06;;;0.66;69.12
64853;BME280;56050;55.558;-4.644;2023-03-15T05:52:50;101318.56;;;0.65;69.30
64853;BME280;56050;55.558;-4.644;2023-03-15T05:55:16;101311.22;;;0.62;69.18
64853;BME280;56050;55.558;-4.644;2023-03-15T05:57:42;101314.66;;;0.63;69.35
64853;BME280;56050;55.558;-4.644;2023-03-15T06:00:07;101309.66;;;0.61;69.32
64853;BME280;56050;55.558;-4.644;2023-03-15T06:02:34;101312.28;;;0.61;69.29
64853;BME280;56050;55.558;-4.644;2023-03-15T06:04:59;101301.69;;;0.61;69.14
64853;BME280;56050;55.558;-4.644;2023-03-15T06:07:25;101302.47;;;0.62;69.25
64853;BME280;56050;55.558;-4.644;2023-03-15T06:09:50;101302.19;;;0.63;69.43
64853;BME280;56050;55.558;-4.644;2023-03-15T06:12:16;101303.72;;;0.64;69.40
64853;BME280;56050;55.558;-4.644;2023-03-15T06:14:41;101306.88;;;0.66;69.34
64853;BME280;56050;55.558;-4.644;2023-03-15T06:17:07;101310.00;;;0.68;69.24
64853;BME280;56050;55.558;-4.644;2023-03-15T06:19:32;101302.06;;;0.68;69.32
64853;BME280;56050;55.558;-4.644;2023-03-15T06:21:58;101287.69;;;0.69;69.25
64853;BME280;56050;55.558;-4.644;2023-03-15T06:24:23;101300.19;;;0.69;69.27
64853;BME280;56050;55.558;-4.644;2023-03-15T06:26:49;101299.41;;;0.68;69.26
64853;BME280;56050;55.558;-4.644;2023-03-15T06:29:15;101300.19;;;0.69;69.27
64853;BME280;56050;55.558;-4.644;2023-03-15T06:31:41;101294.56;;;0.70;69.24
64853;BME280;56050;55.558;-4.644;2023-03-15T06:34:07;101296.13;;;0.71;69.23
64853;BME280;56050;55.558;-4.644;2023-03-15T06:36:33;101298.94;;;0.75;69.07
64853;BME280;56050;55.558;-4.644;2023-03-15T06:38:58;101296.47;;;0.78;69.21
64853;BME280;56050;55.558;-4.644;2023-03-15T06:41:24;101296.19;;;0.80;69.12
64853;BME280;56050;55.558;-4.644;2023-03-15T06:43:50;101288.38;;;0.83;69.21
64853;BME280;56050;55.558;-4.644;2023-03-15T06:46:16;101299.47;;;0.85;69.15
64853;BME280;56050;55.558;-4.644;2023-03-15T06:48:42;101299.94;;;0.87;69.30
64853;BME280;56050;55.558;-4.644;2023-03-15T06:51:08;101298.53;;;0.90;69.18
64853;BME280;56050;55.558;-4.644;2023-03-15T06:53:33;101295.56;;;0.91;69.06
64853;BME280;56050;55.558;-4.644;2023-03-15T06:55:59;101288.13;;;0.93;69.23
64853;BME280;56050;55.558;-4.644;2023-03-15T06:58:24;101286.25;;;0.94;69.24
64853;BME280;56050;55.558;-4.644;2023-03-15T07:00:50;101284.84;;;0.96;69.35
64853;BME280;56050;55.558;-4.644;2023-03-15T07:03:16;101288.75;;;0.99;69.12
64853;BME280;56050;55.558;-4.644;2023-03-15T07:05:43;101284.72;;;1.01;69.23
64853;BME280;56050;55.558;-4.644;2023-03-15T07:08:09;101287.81;;;1.03;69.22
64853;BME280;56050;55.558;-4.644;2023-03-15T07:10:35;101285.34;;;1.07;69.31
64853;BME280;56050;55.558;-4.644;2023-03-15T07:13:00;101277.84;;;1.09;69.18
64853;BME280;56050;55.558;-4.644;2023-03-15T07:15:26;101281.75;;;1.11;69.34
64853;BME280;56050;55.558;-4.644;2023-03-15T07:17:52;101275.50;;;1.16;69.38
64853;BME280;56050;55.558;-4.644;2023-03-15T07:20:18;101279.59;;;1.22;69.43
64853;BME280;56050;55.558;-4.644;2023-03-15T07:22:43;101279.44;;;1.27;69.37
64853;BME280;56050;55.558;-4.644;2023-03-15T07:25:09;101282.13;;;1.36;69.41
64853;BME280;56050;55.558;-4.644;2023-03-15T07:27:35;101281.19;;;1.40;69.17
64853;BME280;56050;55.558;-4.644;2023-03-15T07:30:00;101286.81;;;1.47;69.41
64853;BME280;56050;55.558;-4.644;2023-03-15T07:32:26;101261.69;;;1.53;69.34
64853;BME280;56050;55.558;-4.644;2023-03-15T07:34:52;101253.72;;;1.62;69.29
64853;BME280;56050;55.558;-4.644;2023-03-15T07:37:19;101249.03;;;1.67;69.34
64853;BME280;56050;55.558;-4.644;2023-03-15T07:39:44;101258.41;;;1.73;69.38
64853;BME280;56050;55.558;-4.644;2023-03-15T07:42:10;101251.06;;;1.79;69.36
64853;BME280;56050;55.558;-4.644;2023-03-15T07:44:36;101248.09;;;1.89;69.18
64853;BME280;56050;55.558;-4.644;2023-03-15T07:47:01;101245.72;;;1.96;69.33
64853;BME280;56050;55.558;-4.644;2023-03-15T07:49:27;101248.69;;;2.03;69.28
64853;BME280;56050;55.558;-4.644;2023-03-15T07:51:52;101245.22;;;2.11;69.39
64853;BME280;56050;55.558;-4.644;2023-03-15T07:54:18;101250.53;;;2.20;69.45
64853;BME280;56050;55.558;-4.644;2023-03-15T07:56:44;101255.19;;;2.31;69.28
64853;BME280;56050;55.558;-4.644;2023-03-15T07:59:09;101246.72;;;2.38;69.03
64853;BME280;56050;55.558;-4.644;2023-03-15T08:01:35;101253.75;;;2.43;68.95
64853;BME280;56050;55.558;-4.644;2023-03-15T08:04:00;101261.56;;;2.48;68.82
64853;BME280;56050;55.558;-4.644;2023-03-15T08:06:26;101259.81;;;2.52;68.70
64853;BME280;56050;55.558;-4.644;2023-03-15T08:08:51;101270.59;;;2.55;68.85
64853;BME280;56050;55.558;-4.644;2023-03-15T08:11:17;101274.19;;;2.59;68.82
64853;BME280;56050;55.558;-4.644;2023-03-15T08:13:42;101266.34;;;2.63;68.74
64853;BME280;56050;55.558;-4.644;2023-03-15T08:16:08;101275.53;;;2.65;68.86
64853;BME280;56050;55.558;-4.644;2023-03-15T08:18:33;101273.03;;;2.69;68.73
64853;BME280;56050;55.558;-4.644;2023-03-15T08:20:58;101268.31;;;2.74;68.95
64853;BME280;56050;55.558;-4.644;2023-03-15T08:23:24;101270.16;;;2.82;68.99
64853;BME280;56050;55.558;-4.644;2023-03-15T08:25:49;101251.94;;;2.93;69.09
64853;BME280;56050;55.558;-4.644;2023-03-15T08:28:15;101250.47;;;3.04;69.24
64853;BME280;56050;55.558;-4.644;2023-03-15T08:30:41;101247.91;;;3.16;68.96
64853;BME280;56050;55.558;-4.644;2023-03-15T08:33:07;101254.41;;;3.27;69.11
64853;BME280;56050;55.558;-4.644;2023-03-15T08:35:32;101253.84;;;3.42;68.99
64853;BME280;56050;55.558;-4.644;2023-03-15T08:37:59;101255.78;;;3.54;68.95
64853;BME280;56050;55.558;-4.644;2023-03-15T08:40:27;101260.41;;;3.66;68.78
64853;BME280;56050;55.558;-4.644;2023-03-15T08:42:53;101257.44;;;3.79;68.64
64853;BME280;56050;55.558;-4.644;2023-03-15T08:45:18;101258.28;;;3.92;68.68
64853;BME280;56050;55.558;-4.644;2023-03-15T08:47:44;101252.69;;;4.05;68.51
64853;BME280;56050;55.558;-4.644;2023-03-15T08:50:12;101259.25;;;4.20;68.41
64853;BME280;56050;55.558;-4.644;2023-03-15T08:52:39;101262.31;;;4.31;68.63
64853;BME280;56050;55.558;-4.644;2023-03-15T08:55:05;101257.75;;;4.43;68.28
64853;BME280;56050;55.558;-4.644;2023-03-15T08:57:31;101261.56;;;4.54;68.11
64853;BME280;56050;55.558;-4.644;2023-03-15T09:00:02;101262.22;;;4.63;68.15
64853;BME280;56050;55.558;-4.644;2023-03-15T09:02:32;101266.34;;;4.73;68.06
64853;BME280;56050;55.558;-4.644;2023-03-15T09:04:57;101272.78;;;4.84;67.90
64853;BME280;56050;55.558;-4.644;2023-03-15T09:07:23;101267.34;;;4.93;67.90
64853;BME280;56050;55.558;-4.644;2023-03-15T09:09:48;101269.47;;;4.99;67.62
64853;BME280;56050;55.558;-4.644;2023-03-15T09:12:17;101271.47;;;5.02;67.53
64853;BME280;56050;55.558;-4.644;2023-03-15T09:14:43;101278.81;;;5.05;67.30
64853;BME280;56050;55.558;-4.644;2023-03-15T09:17:09;101279.56;;;5.06;67.21
64853;BME280;56050;55.558;-4.644;2023-03-15T09:19:35;101275.44;;;5.08;67.27
64853;BME280;56050;55.558;-4.644;2023-03-15T09:22:00;101280.13;;;5.11;67.22
64853;BME280;56050;55.558;-4.644;2023-03-15T09:24:26;101285.16;;;5.13;67.13
64853;BME280;56050;55.558;-4.644;2023-03-15T09:26:52;101275.25;;;5.13;66.96
64853;BME280;56050;55.558;-4.644;2023-03-15T09:29:17;101269.91;;;5.13;66.89
64853;BME280;56050;55.558;-4.644;2023-03-15T09:31:43;101265.31;;;5.14;66.84
64853;BME280;56050;55.558;-4.644;2023-03-15T09:34:09;101254.22;;;5.12;67.02
64853;BME280;56050;55.558;-4.644;2023-03-15T09:36:35;101257.22;;;5.10;66.86
64853;BME280;56050;55.558;-4.644;2023-03-15T09:39:00;101253.88;;;5.13;67.09
64853;BME280;56050;55.558;-4.644;2023-03-15T09:41:42;101238.63;;;5.14;66.91
64853;BME280;56050;55.558;-4.644;2023-03-15T09:50:02;101249.53;;;5.21;66.82
64853;BME280;56050;55.558;-4.644;2023-03-15T09:55:17;101239.72;;;5.25;66.73
64853;BME280;56050;55.558;-4.644;2023-03-15T10:00:21;101229.91;;;5.29;66.78
64853;BME280;56050;55.558;-4.644;2023-03-15T10:02:58;101225.78;;;5.31;66.55
64853;BME280;56050;55.558;-4.644;2023-03-15T10:05:46;101220.09;;;5.33;66.68
64853;BME280;56050;55.558;-4.644;2023-03-15T10:08:17;101214.53;;;5.38;66.71
64853;BME280;56050;55.558;-4.644;2023-03-15T10:16:39;101209.50;;;5.49;66.65
64853;BME280;56050;55.558;-4.644;2023-03-15T10:19:43;101206.16;;;5.52;66.63
64853;BME280;56050;55.558;-4.644;2023-03-15T10:28:01;101200.00;;;5.63;66.60
64853;BME280;56050;55.558;-4.644;2023-03-15T10:30:34;101203.94;;;5.69;66.65
64853;BME280;56050;55.558;-4.644;2023-03-15T10:33:15;101203.38;;;5.76;66.56
64853;BME280;56050;55.558;-4.644;2023-03-15T10:35:45;101200.88;;;5.83;66.39
64853;BME280;56050;55.558;-4.644;2023-03-15T10:38:19;101197.22;;;5.87;66.55
64853;BME280;56050;55.558;-4.644;2023-03-15T10:40:47;101190.94;;;5.96;66.62
64853;BME280;56050;55.558;-4.644;2023-03-15T10:48:57;101192.25;;;6.17;66.27
64853;BME280;56050;55.558;-4.644;2023-03-15T10:51:29;101192.09;;;6.26;66.36
64853;BME280;56050;55.558;-4.644;2023-03-15T10:54:17;101184.66;;;6.35;66.33
64853;BME280;56050;55.558;-4.644;2023-03-15T10:56:49;101182.56;;;6.44;66.04
64853;BME280;56050;55.558;-4.644;2023-03-15T10:59:29;101188.88;;;6.52;66.11
64853;BME280;56050;55.558;-4.644;2023-03-15T11:02:22;101188.63;;;6.57;65.85
64853;BME280;56050;55.558;-4.644;2023-03-15T11:05:01;101188.00;;;6.63;65.83
64853;BME280;56050;55.558;-4.644;2023-03-15T11:07:27;101183.16;;;6.69;65.78
64853;BME280;56050;55.558;-4.644;2023-03-15T11:09:58;101182.53;;;6.75;65.78
64853;BME280;56050;55.558;-4.644;2023-03-15T11:12:26;101181.16;;;6.81;65.90
64853;BME280;56050;55.558;-4.644;2023-03-15T11:14:57;101180.19;;;6.89;65.73
64853;BME280;56050;55.558;-4.644;2023-03-15T11:17:26;101173.75;;;6.94;65.61
64853;BME280;56050;55.558;-4.644;2023-03-15T11:20:48;101164.34;;;7.00;65.55
64853;BME280;56050;55.558;-4.644;2023-03-15T11:22:51;101154.63;;;7.11;65.57
64853;BME280;56050;55.558;-4.644;2023-03-15T11:25:19;101156.69;;;7.18;65.39
64853;BME280;56050;55.558;-4.644;2023-03-15T11:27:46;101161.38;;;7.24;65.46
64853;BME280;56050;55.558;-4.644;2023-03-15T11:30:17;101160.75;;;7.31;65.14
64853;BME280;56050;55.558;-4.644;2023-03-15T11:32:45;101154.00;;;7.37;65.06
64853;BME280;56050;55.558;-4.644;2023-03-15T11:35:12;101155.28;;;7.43;65.05
64853;BME280;56050;55.558;-4.644;2023-03-15T11:38:00;101156.50;;;7.49;65.16
64853;BME280;56050;55.558;-4.644;2023-03-15T11:40:38;101158.19;;;7.57;65.01
64853;BME280;56050;55.558;-4.644;2023-03-15T11:43:10;101151.41;;;7.63;65.09
64853;BME280;56050;55.558;-4.644;2023-03-15T11:45:58;101153.09;;;7.71;64.97
64853;BME280;56050;55.558;-4.644;2023-03-15T11:48:42;101152.88;;;7.80;64.95
64853;BME280;56050;55.558;-4.644;2023-03-15T11:51:11;101149.19;;;7.88;64.63
64853;BME280;56050;55.558;-4.644;2023-03-15T11:53:42;101138.94;;;7.93;64.49
64853;BME280;56050;55.558;-4.644;2023-03-15T11:56:26;101143.59;;;7.96;64.50
64853;BME280;56050;55.558;-4.644;2023-03-15T11:59:04;101139.06;;;8.00;64.49
64853;BME280;56050;55.558;-4.644;2023-03-15T12:01:33;101142.56;;;8.04;64.19
64853;BME280;56050;55.558;-4.644;2023-03-15T12:06:54;101137.59;;;8.06;64.26
64853;BME280;56050;55.558;-4.644;2023-03-15T12:12:01;101128.09;;;8.09;64.16
64853;BME280;56050;55.558;-4.644;2023-03-15T12:17:34;101117.00;;;8.10;64.09
64853;BME280;56050;55.558;-4.644;2023-03-15T12:19:41;101111.69;;;8.14;64.04
64853;BME280;56050;55.558;-4.644;2023-03-15T12:22:12;101113.28;;;8.18;63.95
64853;BME280;56050;55.558;-4.644;2023-03-15T12:24:39;101103.72;;;8.21;63.90
64853;BME280;56050;55.558;-4.644;2023-03-15T12:27:17;101102.63;;;8.22;63.80
64853;BME280;56050;55.558;-4.644;2023-03-15T12:29:46;101099.56;;;8.23;63.67
64853;BME280;56050;55.558;-4.644;2023-03-15T12:32:14;101099.28;;;8.28;63.77
64853;BME280;56050;55.558;-4.644;2023-03-15T12:35:08;101093.66;;;8.37;63.72
64853;BME280;56050;55.558;-4.644;2023-03-15T12:55:50;101082.44;;;8.58;63.48
64853;BME280;56050;55.558;-4.644;2023-03-15T12:58:18;101078.59;;;8.55;63.40
64853;BME280;56050;55.558;-4.644;2023-03-15T13:00:45;101077.03;;;8.54;63.36
64853;BME280;56050;55.558;-4.644;2023-03-15T13:08:29;101070.06;;;8.50;63.40
64853;BME280;56050;55.558;-4.644;2023-03-15T13:16:39;101049.25;;;8.43;63.25
64853;BME280;56050;55.558;-4.644;2023-03-15T13:19:31;101052.31;;;8.42;63.26
64853;BME280;56050;55.558;-4.644;2023-03-15T13:25:16;101044.47;;;8.30;63.39
64853;BME280;56050;55.558;-4.644;2023-03-15T13:28:05;101038.25;;;8.25;63.55
64853;BME280;56050;55.558;-4.644;2023-03-15T13:30:38;101037.81;;;8.20;63.52
64853;BME280;56050;55.558;-4.644;2023-03-15T13:35:30;101032.63;;;8.08;63.49
64853;BME280;56050;55.558;-4.644;2023-03-15T13:38:08;101022.94;;;8.00;63.65
64853;BME280;56050;55.558;-4.644;2023-03-15T13:40:34;101013.28;;;7.95;63.88
64853;BME280;56050;55.558;-4.644;2023-03-15T13:42:59;101021.63;;;7.90;63.80
64853;BME280;56050;55.558;-4.644;2023-03-15T13:45:25;101010.09;;;7.86;63.96
64853;BME280;56050;55.558;-4.644;2023-03-15T13:47:50;101005.06;;;7.85;63.79
64853;BME280;56050;55.558;-4.644;2023-03-15T13:50:20;100998.47;;;7.79;64.25
64853;BME280;56050;55.558;-4.644;2023-03-15T13:52:46;100998.75;;;7.74;64.25
64853;BME280;56050;55.558;-4.644;2023-03-15T13:55:15;100993.69;;;7.68;64.34
64853;BME280;56050;55.558;-4.644;2023-03-15T13:57:43;100991.41;;;7.67;64.34
64853;BME280;56050;55.558;-4.644;2023-03-15T14:00:10;100983.38;;;7.70;64.41
64853;BME280;56050;55.558;-4.644;2023-03-15T14:02:47;100979.97;;;7.70;64.41
64853;BME280;56050;55.558;-4.644;2023-03-15T14:05:18;100967.66;;;7.69;64.45
64853;BME280;56050;55.558;-4.644;2023-03-15T14:07:46;100969.94;;;7.67;64.59
64853;BME280;56050;55.558;-4.644;2023-03-15T14:12:44;100958.75;;;7.61;64.69
64853;BME280;56050;55.558;-4.644;2023-03-15T14:15:17;100950.66;;;7.58;64.85
64853;BME280;56050;55.558;-4.644;2023-03-15T14:17:52;100944.50;;;7.57;64.72